< < Back
Terminal Aerodrome Forecast


Current Version              Previous Versions:   1  2  3  4  5  6  7  8  9  

Terminal Aerodrome Forecast

853
FTUS44 KBMX 302321
TAFBHM
TAF
KBHM 302321Z 0100/0124 36004KT P6SM SKC
     FM011800 32009KT P6SM FEW090=

Latest METAR

701
SAUS70 KWBC 020000 RRR
MTRBHM
METAR KBHM 012353Z 29007KT 10SM FEW075 34/16 A2999 RMK AO2 SLP147
T03390161 10350 20328 55002


USA.gov is the U.S. government's official web portal to all federal, state and local government web resources and services.